createdAt,value
2022-09-21T00:01:39.346Z,4.80
2022-09-21T00:04:07.476Z,4.77
2022-09-21T00:06:37.354Z,4.60
2022-09-21T00:09:06.154Z,4.43
2022-09-21T00:11:35.240Z,3.90
2022-09-21T00:14:05.471Z,5.90
2022-09-21T00:16:33.836Z,2.97
2022-09-21T00:19:02.403Z,3.30
2022-09-21T00:21:30.660Z,7.53
2022-09-21T00:24:00.587Z,4.93
2022-09-21T00:26:29.671Z,4.70
2022-09-21T00:29:00.405Z,6.33
2022-09-21T00:31:30.021Z,5.37
2022-09-21T00:34:00.157Z,5.03
2022-09-21T00:36:29.032Z,4.43
2022-09-21T00:39:00.930Z,8.70
2022-09-21T00:41:30.650Z,5.53
2022-09-21T00:44:25.309Z,4.77
2022-09-21T00:46:54.917Z,6.90
2022-09-21T00:49:23.586Z,3.63
2022-09-21T00:51:53.241Z,4.93
2022-09-21T00:54:26.696Z,5.37
2022-09-21T00:56:56.401Z,4.07
2022-09-21T00:59:29.398Z,3.27
2022-09-21T01:01:59.066Z,6.90
2022-09-21T01:04:28.280Z,4.77
2022-09-21T01:06:57.746Z,3.00
2022-09-21T01:09:27.744Z,4.80
2022-09-21T01:12:08.334Z,4.23
2022-09-21T01:15:14.755Z,5.10
2022-09-21T01:17:50.902Z,6.03
2022-09-21T01:20:43.652Z,5.77
2022-09-21T01:23:50.029Z,3.87
2022-09-21T01:26:27.924Z,4.00
2022-09-21T01:29:17.909Z,4.90
2022-09-21T01:31:51.213Z,5.10
2022-09-21T01:34:28.892Z,2.90
2022-09-21T01:37:00.077Z,2.80
2022-09-21T01:39:28.933Z,6.17
2022-09-21T01:41:58.557Z,4.77
2022-09-21T01:44:33.475Z,6.20
2022-09-21T01:47:03.891Z,3.27
2022-09-21T01:49:37.540Z,7.00
2022-09-21T01:52:13.059Z,5.67
2022-09-21T01:54:47.216Z,5.00
2022-09-21T01:57:20.289Z,6.77
2022-09-21T01:59:53.923Z,3.50
2022-09-21T02:02:25.871Z,5.47
2022-09-21T02:04:53.910Z,5.47
2022-09-21T02:07:22.193Z,4.10
2022-09-21T02:09:50.302Z,2.83
2022-09-21T02:12:19.325Z,3.33
2022-09-21T02:14:49.476Z,4.07
2022-09-21T02:17:32.395Z,4.03
2022-09-21T02:20:10.789Z,3.20
2022-09-21T02:22:49.401Z,4.33
2022-09-21T02:25:22.511Z,5.03
2022-09-21T02:27:56.922Z,4.93
2022-09-21T02:30:28.194Z,5.90
2022-09-21T02:33:02.314Z,4.60
2022-09-21T02:35:37.334Z,5.93
2022-09-21T02:38:12.209Z,2.73
2022-09-21T02:40:44.629Z,3.87
2022-09-21T02:43:21.790Z,3.87
2022-09-21T02:45:55.536Z,4.90
2022-09-21T02:48:29.475Z,8.93
2022-09-21T02:51:00.682Z,9.37
2022-09-21T02:53:34.413Z,12.13
2022-09-21T02:56:06.952Z,10.53
2022-09-21T02:58:38.703Z,4.13
2022-09-21T03:01:08.939Z,4.43
2022-09-21T03:03:37.430Z,7.00
2022-09-21T03:06:05.652Z,5.83
2022-09-21T03:08:33.947Z,3.57
2022-09-21T03:11:02.838Z,4.23
2022-09-21T03:13:31.282Z,4.37
2022-09-21T03:16:04.454Z,3.70
2022-09-21T03:18:35.050Z,3.53
2022-09-21T03:21:03.426Z,5.37
2022-09-21T03:23:31.751Z,4.97
2022-09-21T03:26:00.496Z,14.17
2022-09-21T03:28:28.507Z,4.90
2022-09-21T03:30:57.089Z,8.67
2022-09-21T03:33:26.437Z,6.13
2022-09-21T03:35:56.356Z,6.17
2022-09-21T03:38:24.785Z,4.13
2022-09-21T03:40:53.631Z,8.27
2022-09-21T03:43:21.825Z,4.27
2022-09-21T03:45:49.834Z,9.00
2022-09-21T03:48:17.709Z,10.97
2022-09-21T03:50:45.807Z,10.23
2022-09-21T03:53:15.795Z,5.23
2022-09-21T03:55:44.424Z,4.50
2022-09-21T03:58:12.649Z,7.93
2022-09-21T04:00:40.587Z,4.17
2022-09-21T04:03:08.612Z,5.23
2022-09-21T04:05:36.600Z,7.17
2022-09-21T04:08:04.950Z,9.90
2022-09-21T04:10:34.601Z,4.27
2022-09-21T04:13:04.373Z,8.00
2022-09-21T04:15:32.652Z,10.43
2022-09-21T04:18:00.777Z,6.23
2022-09-21T04:20:29.369Z,10.17
2022-09-21T04:23:10.730Z,11.00
2022-09-21T04:29:02.230Z,9.30
2022-09-21T04:31:30.998Z,6.43
2022-09-21T04:34:00.796Z,9.43
2022-09-21T04:36:33.240Z,7.87
2022-09-21T04:39:04.482Z,19.97
2022-09-21T04:41:34.296Z,7.07
2022-09-21T04:44:02.684Z,9.37
2022-09-21T04:46:30.889Z,6.47
2022-09-21T04:48:59.161Z,22.93
2022-09-21T04:51:32.205Z,9.77
2022-09-21T04:54:08.173Z,6.00
2022-09-21T04:56:37.696Z,10.70
2022-09-21T04:59:06.194Z,7.33
2022-09-21T05:01:34.699Z,21.20
2022-09-21T05:04:03.235Z,15.17
2022-09-21T05:06:32.045Z,4.63
2022-09-21T05:09:17.700Z,9.50
2022-09-21T05:11:47.925Z,9.53
2022-09-21T05:14:16.565Z,8.03
2022-09-21T05:16:44.728Z,22.30
2022-09-21T05:19:13.212Z,18.10
2022-09-21T05:21:50.360Z,35.20
2022-09-21T05:24:19.534Z,47.63
2022-09-21T05:26:53.775Z,48.67
2022-09-21T05:29:22.737Z,23.07
2022-09-21T05:31:58.084Z,28.17
2022-09-21T05:34:40.419Z,33.40
2022-09-21T05:37:15.266Z,19.53
2022-09-21T05:39:44.149Z,29.67
2022-09-21T05:42:14.728Z,16.20
2022-09-21T05:44:43.359Z,24.93
2022-09-21T05:47:24.278Z,14.57
2022-09-21T05:50:01.095Z,16.47
2022-09-21T05:52:35.904Z,8.30
2022-09-21T05:55:14.280Z,10.90
2022-09-21T05:57:49.103Z,11.83
2022-09-21T06:00:20.553Z,13.33
2022-09-21T06:03:17.795Z,8.03
2022-09-21T06:05:46.476Z,23.10
2022-09-21T06:08:14.708Z,14.20
2022-09-21T06:10:43.249Z,10.07
2022-09-21T06:13:13.285Z,10.93
2022-09-21T06:15:42.145Z,9.87
2022-09-21T06:18:15.528Z,18.60
2022-09-21T06:20:45.914Z,15.63
2022-09-21T06:23:15.580Z,8.57
2022-09-21T06:25:43.503Z,12.63
2022-09-21T06:28:14.332Z,6.57
2022-09-21T06:30:45.060Z,10.67
2022-09-21T06:33:13.278Z,9.50
2022-09-21T06:35:41.606Z,10.80
2022-09-21T06:38:10.285Z,4.80
2022-09-21T06:40:38.541Z,11.97
2022-09-21T06:43:07.000Z,4.70
2022-09-21T06:45:37.320Z,8.10
2022-09-21T06:48:05.568Z,6.93
2022-09-21T06:50:35.054Z,4.77
2022-09-21T06:53:17.714Z,10.20
2022-09-21T06:55:45.928Z,12.33
2022-09-21T06:58:13.840Z,5.53
2022-09-21T07:00:43.452Z,8.77
2022-09-21T07:03:12.791Z,7.80
2022-09-21T07:05:41.110Z,7.17
2022-09-21T07:10:05.007Z,5.90
2022-09-21T07:10:59.950Z,5.57
2022-09-21T07:13:28.679Z,6.20
2022-09-21T07:15:58.079Z,4.87
2022-09-21T07:18:26.748Z,6.40
2022-09-21T07:20:54.887Z,5.80
2022-09-21T07:23:23.532Z,8.63
2022-09-21T07:25:52.795Z,8.43
2022-09-21T07:28:21.833Z,5.30
2022-09-21T07:30:50.208Z,5.77
2022-09-21T07:33:20.198Z,7.13
2022-09-21T07:35:52.894Z,5.90
2022-09-21T07:38:21.482Z,4.57
2022-09-21T07:40:49.865Z,3.90
2022-09-21T07:43:18.255Z,5.10
2022-09-21T07:45:55.947Z,6.90
2022-09-21T07:48:26.073Z,7.00
2022-09-21T07:50:54.944Z,5.47
2022-09-21T07:53:23.401Z,6.20
2022-09-21T07:55:51.644Z,6.50
2022-09-21T07:58:36.992Z,6.10
2022-09-21T08:01:06.953Z,21.10
2022-09-21T08:03:37.204Z,4.17
2022-09-21T08:06:05.482Z,5.40
2022-09-21T08:08:34.112Z,4.33
2022-09-21T08:11:05.053Z,4.47
2022-09-21T08:13:33.522Z,3.87
2022-09-21T08:16:02.223Z,4.40
2022-09-21T08:18:31.338Z,5.37
2022-09-21T08:21:02.044Z,2.53
2022-09-21T08:23:30.975Z,6.17
2022-09-21T08:26:02.797Z,4.13
2022-09-21T08:28:31.781Z,4.47
2022-09-21T08:31:10.854Z,9.80
2022-09-21T08:33:39.399Z,4.10
2022-09-21T08:36:10.540Z,4.77
2022-09-21T08:38:40.047Z,4.90
2022-09-21T08:41:17.886Z,3.70
2022-09-21T08:43:49.215Z,4.17
2022-09-21T08:46:19.845Z,3.60
2022-09-21T08:48:52.095Z,9.20
2022-09-21T08:51:25.605Z,9.93
2022-09-21T08:53:57.743Z,5.47
2022-09-21T08:56:47.098Z,6.63
2022-09-21T08:59:16.794Z,6.30
2022-09-21T09:01:58.793Z,5.40
2022-09-21T09:04:36.586Z,4.20
2022-09-21T09:07:18.716Z,4.73
2022-09-21T09:10:01.773Z,3.77
2022-09-21T09:12:46.990Z,3.70
2022-09-21T09:15:25.730Z,3.40
2022-09-21T09:18:01.448Z,4.10
2022-09-21T09:20:33.844Z,2.57
2022-09-21T09:23:09.102Z,5.37
2022-09-21T09:25:39.843Z,2.50
2022-09-21T09:28:21.681Z,2.80
2022-09-21T09:30:57.637Z,4.67
2022-09-21T09:33:29.635Z,1.90
2022-09-21T09:36:03.414Z,3.00
2022-09-21T09:38:38.662Z,1.87
2022-09-21T09:41:31.884Z,1.67
2022-09-21T09:44:13.459Z,4.80
2022-09-21T09:46:57.299Z,2.00
2022-09-21T09:49:34.556Z,3.03
2022-09-21T09:52:03.307Z,2.63
2022-09-21T09:54:36.322Z,2.67
2022-09-21T09:57:06.061Z,4.87
2022-09-21T09:59:38.747Z,6.03
2022-09-21T10:02:08.898Z,10.30
2022-09-21T10:04:37.505Z,6.03
2022-09-21T10:07:05.729Z,1.63
2022-09-21T10:09:36.616Z,2.23
2022-09-21T10:12:18.833Z,1.40
2022-09-21T10:14:51.961Z,2.40
2022-09-21T10:17:21.142Z,2.87
2022-09-21T10:19:49.910Z,4.30
2022-09-21T10:22:21.910Z,1.50
2022-09-21T10:24:54.271Z,3.77
2022-09-21T10:27:26.666Z,1.80
2022-09-21T10:29:54.945Z,2.97
2022-09-21T10:32:26.548Z,4.33
2022-09-21T10:35:18.271Z,2.13
2022-09-21T10:37:50.989Z,3.00
2022-09-21T10:40:31.892Z,4.53
2022-09-21T10:43:01.530Z,1.40
2022-09-21T10:45:37.383Z,1.20
2022-09-21T10:48:11.271Z,2.80
2022-09-21T10:50:41.485Z,2.07
2022-09-21T10:53:18.904Z,1.37
2022-09-21T10:56:14.573Z,3.63
2022-09-21T10:59:22.477Z,4.70
2022-09-21T11:01:51.908Z,1.77
2022-09-21T11:04:35.801Z,2.87
2022-09-21T11:07:15.371Z,6.97
2022-09-21T11:09:49.890Z,2.00
2022-09-21T11:12:31.513Z,2.23
2022-09-21T11:18:20.063Z,3.90
2022-09-21T11:20:53.121Z,0.80
2022-09-21T11:23:38.504Z,1.63
2022-09-21T11:26:13.777Z,3.90
2022-09-21T11:28:49.396Z,1.57
2022-09-21T11:31:38.783Z,5.90
2022-09-21T11:34:26.246Z,2.87
2022-09-21T11:37:10.084Z,6.97
2022-09-21T11:39:51.257Z,1.70
2022-09-21T11:42:34.158Z,1.87
2022-09-21T11:45:14.378Z,20.73
2022-09-21T11:47:58.961Z,7.10
2022-09-21T11:50:55.265Z,12.20
2022-09-21T11:53:37.396Z,3.67
2022-09-21T11:56:26.977Z,3.47
2022-09-21T11:59:07.007Z,1.27
2022-09-21T12:01:48.458Z,3.40
2022-09-21T12:04:42.303Z,22.03
2022-09-21T12:07:30.346Z,3.57
2022-09-21T12:10:15.237Z,3.63
2022-09-21T12:12:49.596Z,2.07
2022-09-21T12:15:25.701Z,1.10
2022-09-21T12:18:02.572Z,4.00
2022-09-21T12:20:43.552Z,4.13
2022-09-21T12:23:18.429Z,5.67
2022-09-21T12:25:58.497Z,7.93
2022-09-21T12:29:01.268Z,3.70
2022-09-21T12:34:21.986Z,1.03
2022-09-21T12:37:08.524Z,1.10
2022-09-21T12:39:44.153Z,4.50
2022-09-21T12:42:24.603Z,2.80
2022-09-21T12:44:56.882Z,2.07
2022-09-21T12:47:34.170Z,3.23
2022-09-21T12:50:07.255Z,1.70
2022-09-21T12:52:38.437Z,4.07
2022-09-21T12:55:21.420Z,5.43
2022-09-21T12:58:14.564Z,9.13
2022-09-21T13:00:53.172Z,3.37
2022-09-21T13:03:33.267Z,0.67
2022-09-21T13:06:56.814Z,1.73
2022-09-21T13:15:59.674Z,3.23
2022-09-21T13:21:32.493Z,2.93
2022-09-21T13:25:03.183Z,4.73
2022-09-21T13:32:22.755Z,5.77
2022-09-21T13:34:52.494Z,1.80
2022-09-21T13:37:31.842Z,10.30
2022-09-21T13:52:18.018Z,4.10
2022-09-21T13:55:05.943Z,2.73
2022-09-21T13:58:18.974Z,4.93
2022-09-21T14:00:59.377Z,4.47
2022-09-21T14:03:36.786Z,3.73
2022-09-21T14:06:10.313Z,2.43
2022-09-21T14:08:43.211Z,1.87
2022-09-21T14:11:23.963Z,3.93
2022-09-21T14:14:06.388Z,1.40
2022-09-21T14:17:05.772Z,14.20
2022-09-21T14:20:30.306Z,1.07
2022-09-21T14:23:30.027Z,10.23
2022-09-21T14:26:01.577Z,0.80
2022-09-21T14:28:42.063Z,1.27
2022-09-21T14:31:19.586Z,5.33
2022-09-21T14:33:54.366Z,15.97
2022-09-21T14:36:31.626Z,6.53
2022-09-21T14:39:06.842Z,4.93
2022-09-21T14:41:47.902Z,2.83
2022-09-21T14:44:22.819Z,5.77
2022-09-21T14:47:12.105Z,7.77
2022-09-21T14:50:06.459Z,0.73
2022-09-21T14:52:50.302Z,7.00
2022-09-21T14:55:27.666Z,4.07
2022-09-21T14:58:21.455Z,1.50
2022-09-21T15:01:22.112Z,2.10
2022-09-21T15:04:01.863Z,3.20
2022-09-21T15:06:58.374Z,2.37
2022-09-21T15:10:17.780Z,2.20
2022-09-21T15:12:54.375Z,1.83
2022-09-21T15:15:35.845Z,3.07
2022-09-21T15:18:21.511Z,10.50
2022-09-21T15:21:01.982Z,8.93
2022-09-21T15:23:36.573Z,5.40
2022-09-21T15:26:09.607Z,1.67
2022-09-21T15:31:22.898Z,1.10
2022-09-21T15:33:54.380Z,4.20
2022-09-21T15:36:24.990Z,2.50
2022-09-21T15:38:54.144Z,3.10
2022-09-21T15:41:41.264Z,2.97
2022-09-21T15:44:16.308Z,4.77
2022-09-21T15:46:47.323Z,2.60
2022-09-21T15:49:22.140Z,14.23
2022-09-21T15:51:56.722Z,10.77
2022-09-21T15:54:32.916Z,2.30
2022-09-21T15:57:08.032Z,6.30
2022-09-21T15:59:37.355Z,3.37
2022-09-21T16:02:13.478Z,11.13
2022-09-21T16:04:49.573Z,4.07
2022-09-21T16:07:28.282Z,3.93
2022-09-21T16:09:56.817Z,1.53
2022-09-21T16:12:40.954Z,4.23
2022-09-21T16:15:24.049Z,2.07
2022-09-21T16:18:02.999Z,1.63
2022-09-21T16:20:45.791Z,1.10
2022-09-21T16:23:17.566Z,1.90
2022-09-21T16:25:48.151Z,3.57
2022-09-21T16:28:44.962Z,2.17
2022-09-21T16:31:38.946Z,2.93
2022-09-21T16:34:22.905Z,1.83
2022-09-21T16:37:26.442Z,4.70
2022-09-21T16:42:46.975Z,1.43
2022-09-21T16:45:22.975Z,2.13
2022-09-21T16:47:54.950Z,1.50
2022-09-21T16:50:25.966Z,2.23
2022-09-21T16:52:54.973Z,2.83
2022-09-21T16:55:31.169Z,4.23
2022-09-21T16:58:00.289Z,4.20
2022-09-21T17:00:49.054Z,1.10
2022-09-21T17:03:18.344Z,2.63
2022-09-21T17:05:48.300Z,5.13
2022-09-21T17:08:50.808Z,3.00
2022-09-21T17:11:25.964Z,7.87
2022-09-21T17:14:13.602Z,1.67
2022-09-21T17:16:44.323Z,3.10
2022-09-21T17:19:20.322Z,3.10
2022-09-21T17:21:59.819Z,6.47
2022-09-21T17:24:54.484Z,1.80
2022-09-21T17:27:52.965Z,3.77
2022-09-21T17:30:22.480Z,4.23
2022-09-21T17:32:55.891Z,3.53
2022-09-21T17:35:33.523Z,2.07
2022-09-21T17:38:14.503Z,2.07
2022-09-21T17:40:43.744Z,5.10
2022-09-21T17:43:37.337Z,10.27
2022-09-21T17:46:13.482Z,6.50
2022-09-21T17:48:42.782Z,2.30
2022-09-21T17:51:33.570Z,4.77
2022-09-21T17:54:01.231Z,7.13
2022-09-21T17:56:39.547Z,3.53
2022-09-21T17:59:25.496Z,7.23
2022-09-21T18:01:54.231Z,9.93
2022-09-21T18:04:22.947Z,5.90
2022-09-21T18:06:51.288Z,3.60
2022-09-21T18:09:19.769Z,8.87
2022-09-21T18:12:14.865Z,9.20
2022-09-21T18:14:58.253Z,6.53
2022-09-21T18:17:47.454Z,2.80
2022-09-21T18:20:28.572Z,7.70
2022-09-21T18:23:05.840Z,5.20
2022-09-21T18:25:47.528Z,11.97
2022-09-21T18:28:23.705Z,2.27
2022-09-21T18:31:24.651Z,17.67
2022-09-21T18:37:30.413Z,6.30
2022-09-21T18:40:09.006Z,3.67
2022-09-21T18:42:51.425Z,5.33
2022-09-21T18:45:25.907Z,3.90
2022-09-21T18:48:12.503Z,5.60
2022-09-21T18:50:51.799Z,2.10
2022-09-21T18:53:26.419Z,3.33
2022-09-21T18:55:55.768Z,2.57
2022-09-21T18:58:24.508Z,3.37
2022-09-21T19:00:56.467Z,2.83
2022-09-21T19:03:26.884Z,7.00
2022-09-21T19:06:34.173Z,2.67
2022-09-21T19:09:11.602Z,2.77
2022-09-21T19:11:46.595Z,8.47
2022-09-21T19:14:23.590Z,8.33
2022-09-21T19:17:06.460Z,4.30
2022-09-21T19:19:46.183Z,2.77
2022-09-21T19:22:17.353Z,3.23
2022-09-21T19:24:56.099Z,2.30
2022-09-21T19:27:32.135Z,3.23
2022-09-21T19:30:06.168Z,3.70
2022-09-21T19:32:42.497Z,4.10
2022-09-21T19:35:21.588Z,5.87
2022-09-21T19:37:51.967Z,3.90
2022-09-21T19:40:22.480Z,8.73
2022-09-21T19:43:08.074Z,6.00
2022-09-21T19:45:48.677Z,3.03
2022-09-21T19:48:17.762Z,3.70
2022-09-21T19:50:54.599Z,7.13
2022-09-21T19:53:40.705Z,4.60
2022-09-21T19:56:29.799Z,6.63
2022-09-21T19:59:15.856Z,2.90
2022-09-21T20:01:52.611Z,4.37
2022-09-21T20:04:28.020Z,8.23
2022-09-21T20:07:04.989Z,4.83
2022-09-21T20:09:38.151Z,3.40
2022-09-21T20:12:15.197Z,5.20
2022-09-21T20:14:48.278Z,4.30
2022-09-21T20:17:22.070Z,7.23
2022-09-21T20:19:55.813Z,3.53
2022-09-21T20:22:33.622Z,4.33
2022-09-21T20:25:06.950Z,3.83
2022-09-21T20:27:38.964Z,5.67
2022-09-21T20:30:10.068Z,3.90
2022-09-21T20:32:42.385Z,3.77
2022-09-21T20:35:16.008Z,4.73
2022-09-21T20:37:45.866Z,7.67
2022-09-21T20:40:14.857Z,12.40
2022-09-21T20:42:43.132Z,7.90
2022-09-21T20:45:12.810Z,7.60
2022-09-21T20:47:40.895Z,4.70
2022-09-21T20:50:11.592Z,10.10
2022-09-21T20:52:41.451Z,5.40
2022-09-21T20:55:13.684Z,4.83
2022-09-21T20:57:41.794Z,5.77
2022-09-21T21:00:12.419Z,4.77
2022-09-21T21:02:41.663Z,5.37
2022-09-21T21:05:11.187Z,6.03
2022-09-21T21:07:41.069Z,5.43
2022-09-21T21:10:13.307Z,5.77
2022-09-21T21:12:41.685Z,3.97
2022-09-21T21:15:11.331Z,8.07
2022-09-21T21:17:39.563Z,9.07
2022-09-21T21:20:08.689Z,5.83
2022-09-21T21:22:37.091Z,4.10
2022-09-21T21:25:06.352Z,6.03
2022-09-21T21:27:36.100Z,7.77
2022-09-21T21:30:04.465Z,7.03
2022-09-21T21:32:32.984Z,9.97
2022-09-21T21:35:01.185Z,6.10
2022-09-21T21:37:29.942Z,11.07
2022-09-21T21:39:58.490Z,9.23
2022-09-21T21:42:28.777Z,5.03
2022-09-21T21:44:58.853Z,4.30
2022-09-21T21:47:39.262Z,6.83
2022-09-21T21:50:08.517Z,6.20
2022-09-21T21:52:36.832Z,3.40
2022-09-21T21:55:05.103Z,3.87
2022-09-21T21:57:33.457Z,4.00
2022-09-21T22:00:03.434Z,4.03
2022-09-21T22:02:32.359Z,9.27
2022-09-21T22:05:00.884Z,3.63
2022-09-21T22:07:28.761Z,4.80
2022-09-21T22:09:56.964Z,4.17
2022-09-21T22:12:26.139Z,5.63
2022-09-21T22:14:54.489Z,4.30
2022-09-21T22:17:24.243Z,5.10
2022-09-21T22:19:54.038Z,3.53
2022-09-21T22:22:22.177Z,7.37
2022-09-21T22:24:50.117Z,7.17
2022-09-21T22:27:18.024Z,9.53
2022-09-21T22:29:46.229Z,4.80
2022-09-21T22:32:14.255Z,7.00
2022-09-21T22:34:43.850Z,8.87
2022-09-21T22:37:11.811Z,7.67
2022-09-21T22:39:40.112Z,4.57
2022-09-21T22:42:08.302Z,5.97
2022-09-21T22:44:36.339Z,8.97
2022-09-21T22:47:04.666Z,11.67
2022-09-21T22:49:32.905Z,4.83
2022-09-21T22:52:02.736Z,3.93
2022-09-21T22:54:30.994Z,4.57
2022-09-21T22:56:59.012Z,4.47
2022-09-21T22:59:27.042Z,5.73
2022-09-21T23:01:56.524Z,6.93
2022-09-21T23:04:24.698Z,4.00
2022-09-21T23:06:52.636Z,6.83
2022-09-21T23:09:22.689Z,7.23
2022-09-21T23:11:55.143Z,11.57
2022-09-21T23:14:24.176Z,4.47
2022-09-21T23:16:53.337Z,4.77
2022-09-21T23:19:21.413Z,5.17
2022-09-21T23:21:50.975Z,5.67
2022-09-21T23:24:21.919Z,4.50
2022-09-21T23:26:51.433Z,5.50
2022-09-21T23:29:19.503Z,5.07
2022-09-21T23:31:47.570Z,7.60
2022-09-21T23:34:16.417Z,4.83
2022-09-21T23:36:46.433Z,5.00
2022-09-21T23:39:16.058Z,3.90
2022-09-21T23:41:45.988Z,4.80
2022-09-21T23:44:13.925Z,5.27
2022-09-21T23:46:42.714Z,3.73
2022-09-21T23:49:11.154Z,4.13
2022-09-21T23:51:39.688Z,6.23
2022-09-21T23:54:07.949Z,5.50
2022-09-21T23:56:36.212Z,4.30
2022-09-21T23:59:06.383Z,5.93
